sensor_id;sensor_type;location;lat;lon;timestamp;P1;durP1;ratioP1;P2;durP2;ratioP2
78840;SDS011;68379;47.190;27.558;2023-04-24T00:00:40;6.10;;;4.50;;
78840;SDS011;68379;47.190;27.558;2023-04-24T00:03:27;14.90;;;4.60;;
78840;SDS011;68379;47.190;27.558;2023-04-24T00:05:58;9.40;;;4.20;;
78840;SDS011;68379;47.190;27.558;2023-04-24T00:08:30;6.80;;;3.90;;
78840;SDS011;68379;47.190;27.558;2023-04-24T00:11:02;7.70;;;4.70;;
78840;SDS011;68379;47.190;27.558;2023-04-24T00:13:34;7.70;;;4.00;;
78840;SDS011;68379;47.190;27.558;2023-04-24T00:16:07;6.60;;;4.30;;
78840;SDS011;68379;47.190;27.558;2023-04-24T00:18:38;7.70;;;4.90;;
78840;SDS011;68379;47.190;27.558;2023-04-24T00:21:11;9.10;;;4.60;;
78840;SDS011;68379;47.190;27.558;2023-04-24T00:23:43;6.00;;;4.20;;
78840;SDS011;68379;47.190;27.558;2023-04-24T00:26:15;5.60;;;4.20;;
78840;SDS011;68379;47.190;27.558;2023-04-24T00:28:46;6.40;;;4.40;;
78840;SDS011;68379;47.190;27.558;2023-04-24T00:31:18;8.50;;;4.60;;
78840;SDS011;68379;47.190;27.558;2023-04-24T00:33:50;6.20;;;4.00;;
78840;SDS011;68379;47.190;27.558;2023-04-24T00:36:22;5.30;;;4.30;;
78840;SDS011;68379;47.190;27.558;2023-04-24T00:38:55;7.30;;;4.00;;
78840;SDS011;68379;47.190;27.558;2023-04-24T00:41:29;6.40;;;3.90;;
78840;SDS011;68379;47.190;27.558;2023-04-24T00:44:01;9.00;;;5.20;;
78840;SDS011;68379;47.190;27.558;2023-04-24T00:46:33;6.90;;;4.20;;
78840;SDS011;68379;47.190;27.558;2023-04-24T00:49:05;7.30;;;4.40;;
78840;SDS011;68379;47.190;27.558;2023-04-24T00:51:37;10.00;;;4.40;;
78840;SDS011;68379;47.190;27.558;2023-04-24T00:54:14;7.00;;;5.10;;
78840;SDS011;68379;47.190;27.558;2023-04-24T00:56:46;8.00;;;4.20;;
78840;SDS011;68379;47.190;27.558;2023-04-24T00:59:19;7.20;;;4.10;;
78840;SDS011;68379;47.190;27.558;2023-04-24T01:01:51;5.10;;;4.10;;
78840;SDS011;68379;47.190;27.558;2023-04-24T01:04:23;7.70;;;4.00;;
78840;SDS011;68379;47.190;27.558;2023-04-24T01:06:56;6.50;;;4.40;;
78840;SDS011;68379;47.190;27.558;2023-04-24T01:09:28;5.40;;;4.10;;
78840;SDS011;68379;47.190;27.558;2023-04-24T01:12:01;9.50;;;3.90;;
78840;SDS011;68379;47.190;27.558;2023-04-24T01:14:33;5.30;;;4.20;;
78840;SDS011;68379;47.190;27.558;2023-04-24T01:17:06;6.20;;;4.00;;
78840;SDS011;68379;47.190;27.558;2023-04-24T01:19:37;6.90;;;4.30;;
78840;SDS011;68379;47.190;27.558;2023-04-24T01:22:10;10.60;;;4.60;;
78840;SDS011;68379;47.190;27.558;2023-04-24T01:24:42;7.70;;;4.30;;
78840;SDS011;68379;47.190;27.558;2023-04-24T01:27:14;6.10;;;4.00;;
78840;SDS011;68379;47.190;27.558;2023-04-24T01:29:46;7.40;;;5.30;;
78840;SDS011;68379;47.190;27.558;2023-04-24T01:32:20;6.60;;;4.30;;
78840;SDS011;68379;47.190;27.558;2023-04-24T01:34:53;6.70;;;4.60;;
78840;SDS011;68379;47.190;27.558;2023-04-24T01:37:26;7.50;;;5.00;;
78840;SDS011;68379;47.190;27.558;2023-04-24T01:39:57;11.50;;;5.10;;
78840;SDS011;68379;47.190;27.558;2023-04-24T01:42:29;8.10;;;5.00;;
78840;SDS011;68379;47.190;27.558;2023-04-24T01:45:01;9.20;;;5.00;;
78840;SDS011;68379;47.190;27.558;2023-04-24T01:47:34;6.90;;;4.10;;
78840;SDS011;68379;47.190;27.558;2023-04-24T01:50:08;6.70;;;4.40;;
78840;SDS011;68379;47.190;27.558;2023-04-24T01:52:40;7.90;;;4.30;;
78840;SDS011;68379;47.190;27.558;2023-04-24T01:55:12;6.90;;;4.20;;
78840;SDS011;68379;47.190;27.558;2023-04-24T01:57:44;5.00;;;4.00;;
78840;SDS011;68379;47.190;27.558;2023-04-24T02:00:16;6.40;;;4.50;;
78840;SDS011;68379;47.190;27.558;2023-04-24T02:02:47;7.40;;;4.20;;
78840;SDS011;68379;47.190;27.558;2023-04-24T02:05:19;6.80;;;4.50;;
78840;SDS011;68379;47.190;27.558;2023-04-24T02:07:51;8.30;;;5.10;;
78840;SDS011;68379;47.190;27.558;2023-04-24T02:10:23;6.80;;;4.00;;
78840;SDS011;68379;47.190;27.558;2023-04-24T02:12:55;7.00;;;5.00;;
78840;SDS011;68379;47.190;27.558;2023-04-24T02:15:27;6.30;;;4.70;;
78840;SDS011;68379;47.190;27.558;2023-04-24T02:17:59;8.00;;;4.70;;
78840;SDS011;68379;47.190;27.558;2023-04-24T02:20:31;5.60;;;4.00;;
78840;SDS011;68379;47.190;27.558;2023-04-24T02:23:03;8.00;;;5.00;;
78840;SDS011;68379;47.190;27.558;2023-04-24T02:25:38;5.70;;;4.30;;
78840;SDS011;68379;47.190;27.558;2023-04-24T02:28:10;8.20;;;4.40;;
78840;SDS011;68379;47.190;27.558;2023-04-24T02:30:42;6.80;;;4.50;;
78840;SDS011;68379;47.190;27.558;2023-04-24T02:33:13;5.30;;;3.40;;
78840;SDS011;68379;47.190;27.558;2023-04-24T02:35:45;8.00;;;4.50;;
78840;SDS011;68379;47.190;27.558;2023-04-24T02:38:17;7.00;;;4.70;;
78840;SDS011;68379;47.190;27.558;2023-04-24T02:40:49;7.20;;;3.80;;
78840;SDS011;68379;47.190;27.558;2023-04-24T02:43:20;6.90;;;4.50;;
78840;SDS011;68379;47.190;27.558;2023-04-24T02:45:52;6.50;;;4.20;;
78840;SDS011;68379;47.190;27.558;2023-04-24T02:48:24;7.80;;;4.70;;
78840;SDS011;68379;47.190;27.558;2023-04-24T02:50:56;6.90;;;4.40;;
78840;SDS011;68379;47.190;27.558;2023-04-24T02:53:28;7.00;;;4.70;;
78840;SDS011;68379;47.190;27.558;2023-04-24T02:56:00;7.70;;;4.20;;
78840;SDS011;68379;47.190;27.558;2023-04-24T02:58:32;7.70;;;4.90;;
78840;SDS011;68379;47.190;27.558;2023-04-24T03:01:04;8.40;;;4.90;;
78840;SDS011;68379;47.190;27.558;2023-04-24T03:06:31;9.10;;;5.70;;
78840;SDS011;68379;47.190;27.558;2023-04-24T03:09:04;7.80;;;4.80;;
78840;SDS011;68379;47.190;27.558;2023-04-24T03:11:35;7.80;;;4.80;;
78840;SDS011;68379;47.190;27.558;2023-04-24T03:14:07;7.90;;;4.60;;
78840;SDS011;68379;47.190;27.558;2023-04-24T03:16:40;7.80;;;4.40;;
78840;SDS011;68379;47.190;27.558;2023-04-24T03:19:12;6.70;;;4.70;;
78840;SDS011;68379;47.190;27.558;2023-04-24T03:21:43;10.20;;;4.80;;
78840;SDS011;68379;47.190;27.558;2023-04-24T03:24:15;8.10;;;4.80;;
78840;SDS011;68379;47.190;27.558;2023-04-24T03:26:49;7.10;;;5.00;;
78840;SDS011;68379;47.190;27.558;2023-04-24T03:29:20;5.50;;;3.00;;
78840;SDS011;68379;47.190;27.558;2023-04-24T03:31:52;9.20;;;4.90;;
78840;SDS011;68379;47.190;27.558;2023-04-24T03:34:24;8.90;;;5.00;;
78840;SDS011;68379;47.190;27.558;2023-04-24T03:36:56;7.40;;;4.60;;
78840;SDS011;68379;47.190;27.558;2023-04-24T03:39:28;7.30;;;4.90;;
78840;SDS011;68379;47.190;27.558;2023-04-24T03:42:00;12.20;;;5.10;;
78840;SDS011;68379;47.190;27.558;2023-04-24T03:44:32;8.20;;;4.90;;
78840;SDS011;68379;47.190;27.558;2023-04-24T03:47:04;7.20;;;4.60;;
78840;SDS011;68379;47.190;27.558;2023-04-24T03:49:36;11.00;;;5.50;;
78840;SDS011;68379;47.190;27.558;2023-04-24T03:52:08;8.50;;;5.50;;
78840;SDS011;68379;47.190;27.558;2023-04-24T03:54:39;6.90;;;4.20;;
78840;SDS011;68379;47.190;27.558;2023-04-24T03:57:11;7.10;;;5.00;;
78840;SDS011;68379;47.190;27.558;2023-04-24T03:59:43;7.70;;;4.90;;
78840;SDS011;68379;47.190;27.558;2023-04-24T04:02:15;6.80;;;4.30;;
78840;SDS011;68379;47.190;27.558;2023-04-24T04:04:47;8.90;;;5.50;;
78840;SDS011;68379;47.190;27.558;2023-04-24T04:07:19;9.20;;;5.00;;
78840;SDS011;68379;47.190;27.558;2023-04-24T04:09:52;8.30;;;5.10;;
78840;SDS011;68379;47.190;27.558;2023-04-24T04:12:25;6.50;;;4.60;;
78840;SDS011;68379;47.190;27.558;2023-04-24T04:14:57;6.90;;;4.40;;
78840;SDS011;68379;47.190;27.558;2023-04-24T04:17:29;6.00;;;4.40;;
78840;SDS011;68379;47.190;27.558;2023-04-24T04:22:37;12.10;;;4.30;;
78840;SDS011;68379;47.190;27.558;2023-04-24T04:25:09;13.20;;;5.00;;
78840;SDS011;68379;47.190;27.558;2023-04-24T04:27:42;8.20;;;5.00;;
78840;SDS011;68379;47.190;27.558;2023-04-24T04:32:46;7.80;;;4.70;;
78840;SDS011;68379;47.190;27.558;2023-04-24T04:35:18;11.50;;;4.70;;
78840;SDS011;68379;47.190;27.558;2023-04-24T04:37:51;8.90;;;4.80;;
78840;SDS011;68379;47.190;27.558;2023-04-24T04:40:24;7.10;;;5.20;;
78840;SDS011;68379;47.190;27.558;2023-04-24T04:42:56;7.20;;;4.50;;
78840;SDS011;68379;47.190;27.558;2023-04-24T04:45:28;6.20;;;4.50;;
78840;SDS011;68379;47.190;27.558;2023-04-24T04:48:03;6.50;;;4.40;;
78840;SDS011;68379;47.190;27.558;2023-04-24T04:50:37;8.00;;;4.60;;
78840;SDS011;68379;47.190;27.558;2023-04-24T04:53:09;7.80;;;4.70;;
78840;SDS011;68379;47.190;27.558;2023-04-24T04:55:42;7.40;;;4.70;;
78840;SDS011;68379;47.190;27.558;2023-04-24T04:58:14;7.50;;;4.30;;
78840;SDS011;68379;47.190;27.558;2023-04-24T05:00:46;7.70;;;4.50;;
78840;SDS011;68379;47.190;27.558;2023-04-24T05:03:18;8.50;;;4.70;;
78840;SDS011;68379;47.190;27.558;2023-04-24T05:05:50;7.70;;;4.80;;
78840;SDS011;68379;47.190;27.558;2023-04-24T05:08:21;10.10;;;4.90;;
78840;SDS011;68379;47.190;27.558;2023-04-24T05:10:53;7.80;;;4.40;;
78840;SDS011;68379;47.190;27.558;2023-04-24T05:13:25;7.40;;;5.10;;
78840;SDS011;68379;47.190;27.558;2023-04-24T05:15:57;7.30;;;4.60;;
78840;SDS011;68379;47.190;27.558;2023-04-24T05:18:29;7.40;;;5.20;;
78840;SDS011;68379;47.190;27.558;2023-04-24T05:21:00;8.60;;;4.10;;
78840;SDS011;68379;47.190;27.558;2023-04-24T05:23:32;7.30;;;5.30;;
78840;SDS011;68379;47.190;27.558;2023-04-24T05:26:04;10.50;;;5.30;;
78840;SDS011;68379;47.190;27.558;2023-04-24T05:28:36;9.20;;;4.60;;
78840;SDS011;68379;47.190;27.558;2023-04-24T05:31:08;9.00;;;4.90;;
78840;SDS011;68379;47.190;27.558;2023-04-24T05:33:40;10.70;;;4.60;;
78840;SDS011;68379;47.190;27.558;2023-04-24T05:36:13;8.50;;;5.60;;
78840;SDS011;68379;47.190;27.558;2023-04-24T05:38:45;9.50;;;5.60;;
78840;SDS011;68379;47.190;27.558;2023-04-24T05:41:17;8.70;;;4.70;;
78840;SDS011;68379;47.190;27.558;2023-04-24T05:43:49;9.20;;;5.60;;
78840;SDS011;68379;47.190;27.558;2023-04-24T05:46:21;12.10;;;5.40;;
78840;SDS011;68379;47.190;27.558;2023-04-24T05:48:53;13.40;;;6.40;;
78840;SDS011;68379;47.190;27.558;2023-04-24T05:51:25;7.70;;;5.20;;
78840;SDS011;68379;47.190;27.558;2023-04-24T05:53:57;10.70;;;5.10;;
78840;SDS011;68379;47.190;27.558;2023-04-24T05:56:30;7.80;;;4.60;;
78840;SDS011;68379;47.190;27.558;2023-04-24T05:59:03;8.60;;;4.70;;
78840;SDS011;68379;47.190;27.558;2023-04-24T06:01:35;8.90;;;6.30;;
78840;SDS011;68379;47.190;27.558;2023-04-24T06:04:07;7.70;;;5.00;;
78840;SDS011;68379;47.190;27.558;2023-04-24T06:06:39;8.20;;;5.50;;
78840;SDS011;68379;47.190;27.558;2023-04-24T06:09:12;8.10;;;4.50;;
78840;SDS011;68379;47.190;27.558;2023-04-24T06:11:45;9.10;;;5.10;;
78840;SDS011;68379;47.190;27.558;2023-04-24T06:14:17;9.00;;;5.60;;
78840;SDS011;68379;47.190;27.558;2023-04-24T06:16:50;8.30;;;5.30;;
78840;SDS011;68379;47.190;27.558;2023-04-24T06:19:22;8.60;;;5.40;;
78840;SDS011;68379;47.190;27.558;2023-04-24T06:21:54;9.50;;;6.70;;
78840;SDS011;68379;47.190;27.558;2023-04-24T06:24:29;8.30;;;5.30;;
78840;SDS011;68379;47.190;27.558;2023-04-24T06:27:01;7.20;;;5.30;;
78840;SDS011;68379;47.190;27.558;2023-04-24T06:29:35;6.00;;;5.00;;
78840;SDS011;68379;47.190;27.558;2023-04-24T06:32:07;9.50;;;5.30;;
78840;SDS011;68379;47.190;27.558;2023-04-24T06:34:39;8.30;;;5.70;;
78840;SDS011;68379;47.190;27.558;2023-04-24T06:37:12;6.70;;;5.10;;
78840;SDS011;68379;47.190;27.558;2023-04-24T06:39:44;10.10;;;5.70;;
78840;SDS011;68379;47.190;27.558;2023-04-24T06:42:16;9.70;;;5.70;;
78840;SDS011;68379;47.190;27.558;2023-04-24T06:44:53;7.10;;;5.40;;
78840;SDS011;68379;47.190;27.558;2023-04-24T06:47:24;9.90;;;6.30;;
78840;SDS011;68379;47.190;27.558;2023-04-24T06:49:56;11.40;;;6.30;;
78840;SDS011;68379;47.190;27.558;2023-04-24T06:52:28;8.60;;;5.90;;
78840;SDS011;68379;47.190;27.558;2023-04-24T06:55:01;7.40;;;5.30;;
78840;SDS011;68379;47.190;27.558;2023-04-24T06:57:34;7.80;;;5.70;;
78840;SDS011;68379;47.190;27.558;2023-04-24T07:00:07;8.00;;;5.70;;
78840;SDS011;68379;47.190;27.558;2023-04-24T07:02:40;7.40;;;5.10;;
78840;SDS011;68379;47.190;27.558;2023-04-24T07:05:12;9.20;;;5.60;;
78840;SDS011;68379;47.190;27.558;2023-04-24T07:07:44;7.80;;;5.80;;
78840;SDS011;68379;47.190;27.558;2023-04-24T07:10:17;7.60;;;5.40;;
78840;SDS011;68379;47.190;27.558;2023-04-24T07:12:50;8.10;;;5.30;;
78840;SDS011;68379;47.190;27.558;2023-04-24T07:15:23;8.10;;;5.50;;
78840;SDS011;68379;47.190;27.558;2023-04-24T07:17:55;7.70;;;4.40;;
78840;SDS011;68379;47.190;27.558;2023-04-24T07:20:27;6.50;;;4.90;;
78840;SDS011;68379;47.190;27.558;2023-04-24T07:22:59;6.10;;;5.00;;
78840;SDS011;68379;47.190;27.558;2023-04-24T07:25:31;7.70;;;4.40;;
78840;SDS011;68379;47.190;27.558;2023-04-24T07:28:04;7.90;;;4.40;;
78840;SDS011;68379;47.190;27.558;2023-04-24T07:30:37;11.00;;;4.60;;
78840;SDS011;68379;47.190;27.558;2023-04-24T07:33:08;9.80;;;5.00;;
78840;SDS011;68379;47.190;27.558;2023-04-24T07:35:41;8.00;;;4.60;;
78840;SDS011;68379;47.190;27.558;2023-04-24T07:38:13;7.60;;;4.20;;
78840;SDS011;68379;47.190;27.558;2023-04-24T07:40:45;7.40;;;4.10;;
78840;SDS011;68379;47.190;27.558;2023-04-24T07:43:17;7.90;;;4.70;;
78840;SDS011;68379;47.190;27.558;2023-04-24T07:45:50;6.70;;;4.40;;
78840;SDS011;68379;47.190;27.558;2023-04-24T07:48:22;6.00;;;3.60;;
78840;SDS011;68379;47.190;27.558;2023-04-24T07:50:56;7.70;;;3.80;;
78840;SDS011;68379;47.190;27.558;2023-04-24T07:53:29;6.80;;;4.10;;
78840;SDS011;68379;47.190;27.558;2023-04-24T07:56:01;7.00;;;3.70;;
78840;SDS011;68379;47.190;27.558;2023-04-24T07:58:34;7.30;;;3.70;;
78840;SDS011;68379;47.190;27.558;2023-04-24T08:01:07;7.00;;;4.20;;
78840;SDS011;68379;47.190;27.558;2023-04-24T08:03:39;7.70;;;4.00;;
78840;SDS011;68379;47.190;27.558;2023-04-24T08:06:12;10.10;;;4.30;;
78840;SDS011;68379;47.190;27.558;2023-04-24T08:08:44;7.30;;;3.70;;
78840;SDS011;68379;47.190;27.558;2023-04-24T08:11:16;5.60;;;3.40;;
78840;SDS011;68379;47.190;27.558;2023-04-24T08:13:48;4.90;;;3.90;;
78840;SDS011;68379;47.190;27.558;2023-04-24T08:16:20;12.10;;;3.80;;
78840;SDS011;68379;47.190;27.558;2023-04-24T08:18:52;7.20;;;4.20;;
78840;SDS011;68379;47.190;27.558;2023-04-24T08:21:24;7.20;;;3.70;;
78840;SDS011;68379;47.190;27.558;2023-04-24T08:23:56;7.00;;;4.00;;
78840;SDS011;68379;47.190;27.558;2023-04-24T08:26:29;6.40;;;3.30;;
78840;SDS011;68379;47.190;27.558;2023-04-24T08:29:01;6.70;;;3.40;;
78840;SDS011;68379;47.190;27.558;2023-04-24T08:31:35;6.70;;;4.30;;
78840;SDS011;68379;47.190;27.558;2023-04-24T08:34:07;7.60;;;3.70;;
78840;SDS011;68379;47.190;27.558;2023-04-24T08:36:39;8.40;;;3.90;;
78840;SDS011;68379;47.190;27.558;2023-04-24T08:39:11;7.50;;;3.70;;
78840;SDS011;68379;47.190;27.558;2023-04-24T08:41:43;7.90;;;4.20;;
78840;SDS011;68379;47.190;27.558;2023-04-24T08:44:17;8.00;;;3.80;;
78840;SDS011;68379;47.190;27.558;2023-04-24T08:46:49;6.20;;;3.70;;
78840;SDS011;68379;47.190;27.558;2023-04-24T08:49:23;4.60;;;3.10;;
78840;SDS011;68379;47.190;27.558;2023-04-24T08:51:56;12.30;;;3.80;;
78840;SDS011;68379;47.190;27.558;2023-04-24T08:54:29;5.50;;;3.50;;
78840;SDS011;68379;47.190;27.558;2023-04-24T08:57:06;8.20;;;3.50;;
78840;SDS011;68379;47.190;27.558;2023-04-24T08:59:40;6.70;;;3.40;;
78840;SDS011;68379;47.190;27.558;2023-04-24T09:02:13;7.70;;;3.20;;
78840;SDS011;68379;47.190;27.558;2023-04-24T09:04:47;6.00;;;3.70;;
78840;SDS011;68379;47.190;27.558;2023-04-24T09:07:20;5.20;;;3.40;;
78840;SDS011;68379;47.190;27.558;2023-04-24T09:09:55;7.00;;;3.20;;
78840;SDS011;68379;47.190;27.558;2023-04-24T09:14:59;5.80;;;3.60;;
78840;SDS011;68379;47.190;27.558;2023-04-24T09:17:32;5.70;;;3.10;;
78840;SDS011;68379;47.190;27.558;2023-04-24T09:20:06;8.60;;;3.90;;
78840;SDS011;68379;47.190;27.558;2023-04-24T09:22:39;7.70;;;3.80;;
78840;SDS011;68379;47.190;27.558;2023-04-24T09:25:11;5.20;;;3.80;;
78840;SDS011;68379;47.190;27.558;2023-04-24T09:27:43;8.20;;;3.70;;
78840;SDS011;68379;47.190;27.558;2023-04-24T09:30:16;6.10;;;3.40;;
78840;SDS011;68379;47.190;27.558;2023-04-24T09:32:56;5.10;;;3.30;;
78840;SDS011;68379;47.190;27.558;2023-04-24T09:35:43;4.90;;;3.30;;
78840;SDS011;68379;47.190;27.558;2023-04-24T09:38:21;5.70;;;3.40;;
78840;SDS011;68379;47.190;27.558;2023-04-24T09:41:04;7.50;;;3.50;;
78840;SDS011;68379;47.190;27.558;2023-04-24T09:43:37;7.10;;;3.70;;
78840;SDS011;68379;47.190;27.558;2023-04-24T09:46:09;6.20;;;3.40;;
78840;SDS011;68379;47.190;27.558;2023-04-24T09:48:41;5.90;;;3.70;;
78840;SDS011;68379;47.190;27.558;2023-04-24T09:51:14;6.70;;;3.60;;
78840;SDS011;68379;47.190;27.558;2023-04-24T09:53:49;8.20;;;3.80;;
78840;SDS011;68379;47.190;27.558;2023-04-24T09:56:24;9.40;;;3.80;;
78840;SDS011;68379;47.190;27.558;2023-04-24T09:58:57;7.70;;;3.50;;
78840;SDS011;68379;47.190;27.558;2023-04-24T10:01:37;7.70;;;3.40;;
78840;SDS011;68379;47.190;27.558;2023-04-24T10:04:17;6.60;;;3.30;;
78840;SDS011;68379;47.190;27.558;2023-04-24T10:06:53;6.10;;;3.60;;
78840;SDS011;68379;47.190;27.558;2023-04-24T10:09:26;5.30;;;3.30;;
78840;SDS011;68379;47.190;27.558;2023-04-24T10:11:59;9.10;;;3.90;;
78840;SDS011;68379;47.190;27.558;2023-04-24T10:14:31;7.60;;;4.50;;
78840;SDS011;68379;47.190;27.558;2023-04-24T10:17:09;7.60;;;4.10;;
78840;SDS011;68379;47.190;27.558;2023-04-24T10:19:44;6.20;;;3.50;;
78840;SDS011;68379;47.190;27.558;2023-04-24T10:22:17;4.00;;;3.40;;
78840;SDS011;68379;47.190;27.558;2023-04-24T10:24:51;6.40;;;3.50;;
78840;SDS011;68379;47.190;27.558;2023-04-24T10:27:24;7.10;;;4.10;;
78840;SDS011;68379;47.190;27.558;2023-04-24T10:30:00;7.40;;;4.10;;
78840;SDS011;68379;47.190;27.558;2023-04-24T10:32:33;5.00;;;3.80;;
78840;SDS011;68379;47.190;27.558;2023-04-24T10:35:06;6.60;;;3.70;;
78840;SDS011;68379;47.190;27.558;2023-04-24T10:37:39;6.20;;;3.50;;
78840;SDS011;68379;47.190;27.558;2023-04-24T10:40:17;6.00;;;3.80;;
78840;SDS011;68379;47.190;27.558;2023-04-24T10:42:56;5.70;;;2.60;;
78840;SDS011;68379;47.190;27.558;2023-04-24T10:45:29;5.70;;;4.10;;
78840;SDS011;68379;47.190;27.558;2023-04-24T10:48:01;7.70;;;3.10;;
78840;SDS011;68379;47.190;27.558;2023-04-24T10:53:14;6.20;;;3.70;;
78840;SDS011;68379;47.190;27.558;2023-04-24T10:58:23;6.80;;;3.50;;
78840;SDS011;68379;47.190;27.558;2023-04-24T11:01:06;5.20;;;3.60;;
78840;SDS011;68379;47.190;27.558;2023-04-24T11:03:39;6.10;;;3.50;;
78840;SDS011;68379;47.190;27.558;2023-04-24T11:06:30;6.20;;;4.00;;
78840;SDS011;68379;47.190;27.558;2023-04-24T11:09:05;4.20;;;3.40;;
78840;SDS011;68379;47.190;27.558;2023-04-24T11:11:38;4.80;;;3.60;;
78840;SDS011;68379;47.190;27.558;2023-04-24T11:14:16;6.50;;;3.40;;
78840;SDS011;68379;47.190;27.558;2023-04-24T11:16:53;7.80;;;3.20;;
78840;SDS011;68379;47.190;27.558;2023-04-24T11:19:25;7.50;;;3.90;;
78840;SDS011;68379;47.190;27.558;2023-04-24T11:21:59;5.80;;;4.10;;
78840;SDS011;68379;47.190;27.558;2023-04-24T11:24:38;7.60;;;3.70;;
78840;SDS011;68379;47.190;27.558;2023-04-24T11:27:21;7.50;;;3.30;;
78840;SDS011;68379;47.190;27.558;2023-04-24T11:30:00;6.70;;;3.80;;
78840;SDS011;68379;47.190;27.558;2023-04-24T11:32:36;5.70;;;3.60;;
78840;SDS011;68379;47.190;27.558;2023-04-24T11:35:15;7.30;;;4.00;;
78840;SDS011;68379;47.190;27.558;2023-04-24T11:37:49;4.90;;;3.50;;
78840;SDS011;68379;47.190;27.558;2023-04-24T11:40:23;6.00;;;3.50;;
78840;SDS011;68379;47.190;27.558;2023-04-24T11:42:55;6.10;;;3.40;;
78840;SDS011;68379;47.190;27.558;2023-04-24T11:45:30;5.10;;;3.40;;
78840;SDS011;68379;47.190;27.558;2023-04-24T11:48:03;6.90;;;3.50;;
78840;SDS011;68379;47.190;27.558;2023-04-24T11:50:36;5.10;;;3.50;;
78840;SDS011;68379;47.190;27.558;2023-04-24T11:53:08;4.70;;;3.50;;
78840;SDS011;68379;47.190;27.558;2023-04-24T11:55:40;6.20;;;3.40;;
78840;SDS011;68379;47.190;27.558;2023-04-24T11:58:12;4.90;;;4.00;;
78840;SDS011;68379;47.190;27.558;2023-04-24T12:00:44;6.00;;;3.60;;
78840;SDS011;68379;47.190;27.558;2023-04-24T12:03:27;6.60;;;3.70;;
78840;SDS011;68379;47.190;27.558;2023-04-24T12:06:09;7.70;;;3.90;;
78840;SDS011;68379;47.190;27.558;2023-04-24T12:08:42;7.80;;;3.60;;
78840;SDS011;68379;47.190;27.558;2023-04-24T12:11:18;7.90;;;3.50;;
78840;SDS011;68379;47.190;27.558;2023-04-24T12:13:50;5.00;;;3.50;;
78840;SDS011;68379;47.190;27.558;2023-04-24T12:16:22;4.20;;;3.40;;
78840;SDS011;68379;47.190;27.558;2023-04-24T12:18:56;4.30;;;2.90;;
78840;SDS011;68379;47.190;27.558;2023-04-24T12:24:00;7.40;;;3.60;;
78840;SDS011;68379;47.190;27.558;2023-04-24T12:26:36;5.10;;;3.60;;
78840;SDS011;68379;47.190;27.558;2023-04-24T12:29:19;4.50;;;3.40;;
78840;SDS011;68379;47.190;27.558;2023-04-24T12:31:52;4.60;;;3.60;;
78840;SDS011;68379;47.190;27.558;2023-04-24T12:34:25;4.60;;;3.10;;
78840;SDS011;68379;47.190;27.558;2023-04-24T12:36:57;5.00;;;3.10;;
78840;SDS011;68379;47.190;27.558;2023-04-24T12:42:29;5.90;;;3.30;;
78840;SDS011;68379;47.190;27.558;2023-04-24T12:45:03;4.60;;;3.40;;
78840;SDS011;68379;47.190;27.558;2023-04-24T12:47:42;8.10;;;3.10;;
78840;SDS011;68379;47.190;27.558;2023-04-24T12:50:15;7.50;;;3.50;;
78840;SDS011;68379;47.190;27.558;2023-04-24T12:52:47;5.90;;;3.30;;
78840;SDS011;68379;47.190;27.558;2023-04-24T12:55:25;7.20;;;3.70;;
78840;SDS011;68379;47.190;27.558;2023-04-24T12:57:57;5.00;;;3.10;;
78840;SDS011;68379;47.190;27.558;2023-04-24T13:00:31;6.00;;;3.10;;
78840;SDS011;68379;47.190;27.558;2023-04-24T13:03:06;6.90;;;3.40;;
78840;SDS011;68379;47.190;27.558;2023-04-24T13:05:38;5.00;;;3.50;;
78840;SDS011;68379;47.190;27.558;2023-04-24T13:08:10;5.30;;;3.30;;
78840;SDS011;68379;47.190;27.558;2023-04-24T13:10:42;5.10;;;4.10;;
78840;SDS011;68379;47.190;27.558;2023-04-24T13:13:15;6.90;;;3.20;;
78840;SDS011;68379;47.190;27.558;2023-04-24T13:15:47;5.90;;;3.00;;
78840;SDS011;68379;47.190;27.558;2023-04-24T13:18:19;5.30;;;2.80;;
78840;SDS011;68379;47.190;27.558;2023-04-24T13:20:51;5.20;;;3.10;;
78840;SDS011;68379;47.190;27.558;2023-04-24T13:23:31;4.20;;;3.60;;
78840;SDS011;68379;47.190;27.558;2023-04-24T13:26:04;6.10;;;3.20;;
78840;SDS011;68379;47.190;27.558;2023-04-24T13:28:36;4.80;;;3.50;;
78840;SDS011;68379;47.190;27.558;2023-04-24T13:31:09;6.70;;;3.80;;
78840;SDS011;68379;47.190;27.558;2023-04-24T13:33:43;4.80;;;3.20;;
78840;SDS011;68379;47.190;27.558;2023-04-24T13:36:15;4.00;;;3.40;;
78840;SDS011;68379;47.190;27.558;2023-04-24T13:38:47;7.30;;;3.30;;
78840;SDS011;68379;47.190;27.558;2023-04-24T13:41:19;7.00;;;3.30;;
78840;SDS011;68379;47.190;27.558;2023-04-24T13:43:50;5.00;;;3.00;;
78840;SDS011;68379;47.190;27.558;2023-04-24T13:46:22;3.80;;;3.00;;
78840;SDS011;68379;47.190;27.558;2023-04-24T13:48:54;4.80;;;2.90;;
78840;SDS011;68379;47.190;27.558;2023-04-24T13:51:26;5.30;;;3.20;;
78840;SDS011;68379;47.190;27.558;2023-04-24T13:53:58;3.60;;;3.00;;
78840;SDS011;68379;47.190;27.558;2023-04-24T13:56:30;5.10;;;2.80;;
78840;SDS011;68379;47.190;27.558;2023-04-24T13:59:02;6.40;;;3.20;;
78840;SDS011;68379;47.190;27.558;2023-04-24T14:01:34;4.00;;;3.20;;
78840;SDS011;68379;47.190;27.558;2023-04-24T14:04:06;4.00;;;3.00;;
78840;SDS011;68379;47.190;27.558;2023-04-24T14:06:38;6.60;;;3.50;;
78840;SDS011;68379;47.190;27.558;2023-04-24T14:09:09;5.50;;;3.30;;
78840;SDS011;68379;47.190;27.558;2023-04-24T14:11:42;6.60;;;3.60;;
78840;SDS011;68379;47.190;27.558;2023-04-24T14:17:08;6.10;;;3.10;;
78840;SDS011;68379;47.190;27.558;2023-04-24T14:19:40;6.60;;;3.30;;
78840;SDS011;68379;47.190;27.558;2023-04-24T14:22:12;4.10;;;3.00;;
78840;SDS011;68379;47.190;27.558;2023-04-24T14:24:44;4.40;;;3.30;;
78840;SDS011;68379;47.190;27.558;2023-04-24T14:27:16;5.10;;;2.90;;
78840;SDS011;68379;47.190;27.558;2023-04-24T14:29:48;3.90;;;2.90;;
78840;SDS011;68379;47.190;27.558;2023-04-24T14:32:19;4.50;;;3.20;;
78840;SDS011;68379;47.190;27.558;2023-04-24T14:34:51;5.50;;;3.00;;
78840;SDS011;68379;47.190;27.558;2023-04-24T14:37:23;4.80;;;2.80;;
78840;SDS011;68379;47.190;27.558;2023-04-24T14:39:54;5.60;;;3.60;;
78840;SDS011;68379;47.190;27.558;2023-04-24T14:42:26;5.80;;;3.00;;
78840;SDS011;68379;47.190;27.558;2023-04-24T14:44:57;6.20;;;3.30;;
78840;SDS011;68379;47.190;27.558;2023-04-24T14:47:29;5.10;;;3.20;;
78840;SDS011;68379;47.190;27.558;2023-04-24T14:50:01;8.10;;;3.40;;
78840;SDS011;68379;47.190;27.558;2023-04-24T14:52:33;8.10;;;3.00;;
78840;SDS011;68379;47.190;27.558;2023-04-24T14:55:06;5.00;;;3.40;;
78840;SDS011;68379;47.190;27.558;2023-04-24T14:57:40;5.30;;;3.30;;
78840;SDS011;68379;47.190;27.558;2023-04-24T15:00:13;4.50;;;3.20;;
78840;SDS011;68379;47.190;27.558;2023-04-24T15:02:45;5.00;;;3.00;;
78840;SDS011;68379;47.190;27.558;2023-04-24T15:05:17;3.80;;;2.80;;
78840;SDS011;68379;47.190;27.558;2023-04-24T15:07:49;5.00;;;2.80;;
78840;SDS011;68379;47.190;27.558;2023-04-24T15:10:20;4.80;;;2.80;;
78840;SDS011;68379;47.190;27.558;2023-04-24T15:15:23;5.10;;;2.80;;
78840;SDS011;68379;47.190;27.558;2023-04-24T15:17:55;5.80;;;3.20;;
78840;SDS011;68379;47.190;27.558;2023-04-24T15:20:26;5.40;;;3.10;;
78840;SDS011;68379;47.190;27.558;2023-04-24T15:22:58;5.40;;;3.10;;
78840;SDS011;68379;47.190;27.558;2023-04-24T15:25:30;4.50;;;2.90;;
78840;SDS011;68379;47.190;27.558;2023-04-24T15:28:06;5.50;;;3.00;;
78840;SDS011;68379;47.190;27.558;2023-04-24T15:33:08;5.50;;;3.30;;
78840;SDS011;68379;47.190;27.558;2023-04-24T15:35:40;6.20;;;3.10;;